This is the latest recevied weather packets stored in our database for station/object SP9INZ-13. If no packets are shown the sender has not sent any weather packets the latest 10 day(s).
| Time | Temp. | Humidity | Pressure | Rain* | Wind** | Luminosity | Snow |
|---|---|---|---|---|---|---|---|
| 1777871825 | 15.56° C | 44% | 1021 hPa | - | - | - | - |
| 1777870867 | 15° C | 46% | 1021.2 hPa | - | - | - | - |
| 1777869909 | 14.44° C | 46% | 1021.4 hPa | - | - | - | - |
| 1777868951 | 14.44° C | 48% | 1021.2 hPa | - | - | - | - |
| 1777867993 | 14.44° C | 49% | 1021.2 hPa | - | - | - | - |
| 1777867035 | 14.44° C | 48% | 1021.2 hPa | - | - | - | - |
| 1777866077 | 15° C | 47% | 1020.8 hPa | - | - | - | - |
| 1777865119 | 14.44° C | 47% | 1021 hPa | - | - | - | - |
| 1777864161 | 15° C | 47% | 1020.6 hPa | - | - | - | - |
| 1777863203 | 15° C | 48% | 1020.8 hPa | - | - | - | - |
| 1777862245 | 15° C | 46% | 1020.6 hPa | - | - | - | - |
| 1777861288 | 15° C | 46% | 1020.9 hPa | - | - | - | - |
| 1777860329 | 15° C | 47% | 1021 hPa | - | - | - | - |
| 1777859371 | 15.56° C | 46% | 1020.9 hPa | - | - | - | - |
| 1777858413 | 16.11° C | 43% | 1020.8 hPa | - | - | - | - |
| 1777857455 | 16.11° C | 44% | 1020.8 hPa | - | - | - | - |
| 1777856497 | 16.11° C | 44% | 1020.8 hPa | - | - | - | - |
| 1777855603 | 16.11° C | 43% | 1020.9 hPa | - | - | - | - |
| 1777855539 | 16.11° C | 43% | 1020.9 hPa | - | - | - | - |
| 1777854581 | 16.67° C | 43% | 1020.9 hPa | - | - | - | - |
| 1777853623 | 16.11° C | 44% | 1021 hPa | - | - | - | - |
| 1777852665 | 16.67° C | 44% | 1020.9 hPa | - | - | - | - |
| 1777851866 | 16.67° C | 44% | 1021 hPa | - | - | - | - |
| 1777851706 | 16.67° C | 44% | 1021 hPa | - | - | - | - |
| 1777850750 | 16.67° C | 44% | 1021.1 hPa | - | - | - | - |
* Rain since midnight (hover to see other rain measurements)
** Current wind speed in m/s (hover to see current wind gust speed)